sensor_id;sensor_type;location;lat;lon;timestamp;P1;durP1;ratioP1;P2;durP2;ratioP2
26953;SDS011;14508;50.924;11.600;2022-12-07T00:01:20;8.88;;;3.92;;
26953;SDS011;14508;50.924;11.600;2022-12-07T00:03:51;10.23;;;4.53;;
26953;SDS011;14508;50.924;11.600;2022-12-07T00:06:21;13.10;;;5.75;;
26953;SDS011;14508;50.924;11.600;2022-12-07T00:08:48;15.18;;;6.55;;
26953;SDS011;14508;50.924;11.600;2022-12-07T00:11:17;10.02;;;4.43;;
26953;SDS011;14508;50.924;11.600;2022-12-07T00:13:47;9.50;;;4.95;;
26953;SDS011;14508;50.924;11.600;2022-12-07T00:16:19;10.93;;;5.10;;
26953;SDS011;14508;50.924;11.600;2022-12-07T00:18:48;10.13;;;4.97;;
26953;SDS011;14508;50.924;11.600;2022-12-07T00:21:18;12.65;;;5.10;;
26953;SDS011;14508;50.924;11.600;2022-12-07T00:23:48;7.97;;;4.40;;
26953;SDS011;14508;50.924;11.600;2022-12-07T00:26:18;10.02;;;4.97;;
26953;SDS011;14508;50.924;11.600;2022-12-07T00:28:48;12.18;;;5.10;;
26953;SDS011;14508;50.924;11.600;2022-12-07T00:31:19;11.00;;;4.78;;
26953;SDS011;14508;50.924;11.600;2022-12-07T00:33:48;9.73;;;4.38;;
26953;SDS011;14508;50.924;11.600;2022-12-07T00:36:18;8.45;;;4.03;;
26953;SDS011;14508;50.924;11.600;2022-12-07T00:38:52;8.67;;;4.37;;
26953;SDS011;14508;50.924;11.600;2022-12-07T00:41:21;9.27;;;3.92;;
26953;SDS011;14508;50.924;11.600;2022-12-07T00:43:51;9.25;;;4.03;;
26953;SDS011;14508;50.924;11.600;2022-12-07T00:46:19;9.10;;;3.63;;
26953;SDS011;14508;50.924;11.600;2022-12-07T00:48:48;11.82;;;4.70;;
26953;SDS011;14508;50.924;11.600;2022-12-07T00:51:20;10.32;;;4.35;;
26953;SDS011;14508;50.924;11.600;2022-12-07T00:53:49;11.95;;;4.72;;
26953;SDS011;14508;50.924;11.600;2022-12-07T00:56:18;8.18;;;3.72;;
26953;SDS011;14508;50.924;11.600;2022-12-07T00:58:49;7.13;;;3.35;;
26953;SDS011;14508;50.924;11.600;2022-12-07T01:01:18;12.85;;;4.53;;
26953;SDS011;14508;50.924;11.600;2022-12-07T01:03:46;9.88;;;3.83;;
26953;SDS011;14508;50.924;11.600;2022-12-07T01:06:16;8.95;;;4.20;;
26953;SDS011;14508;50.924;11.600;2022-12-07T01:08:46;6.47;;;3.13;;
26953;SDS011;14508;50.924;11.600;2022-12-07T01:11:15;7.88;;;3.35;;
26953;SDS011;14508;50.924;11.600;2022-12-07T01:13:45;11.77;;;3.67;;
26953;SDS011;14508;50.924;11.600;2022-12-07T01:16:14;10.13;;;3.80;;
26953;SDS011;14508;50.924;11.600;2022-12-07T01:18:45;10.95;;;5.43;;
26953;SDS011;14508;50.924;11.600;2022-12-07T01:21:15;7.15;;;3.47;;
26953;SDS011;14508;50.924;11.600;2022-12-07T01:23:46;8.52;;;4.25;;
26953;SDS011;14508;50.924;11.600;2022-12-07T01:26:15;8.32;;;4.45;;
26953;SDS011;14508;50.924;11.600;2022-12-07T01:28:45;7.70;;;3.83;;
26953;SDS011;14508;50.924;11.600;2022-12-07T01:31:13;7.78;;;3.75;;
26953;SDS011;14508;50.924;11.600;2022-12-07T01:33:44;8.80;;;3.70;;
26953;SDS011;14508;50.924;11.600;2022-12-07T01:36:14;9.43;;;3.45;;
26953;SDS011;14508;50.924;11.600;2022-12-07T01:38:45;7.82;;;3.72;;
26953;SDS011;14508;50.924;11.600;2022-12-07T01:41:14;7.95;;;3.38;;
26953;SDS011;14508;50.924;11.600;2022-12-07T01:46:35;7.95;;;3.30;;
26953;SDS011;14508;50.924;11.600;2022-12-07T01:49:03;8.77;;;3.55;;
26953;SDS011;14508;50.924;11.600;2022-12-07T01:51:34;7.05;;;3.60;;
26953;SDS011;14508;50.924;11.600;2022-12-07T01:54:05;6.15;;;2.80;;
26953;SDS011;14508;50.924;11.600;2022-12-07T01:56:34;6.30;;;3.55;;
26953;SDS011;14508;50.924;11.600;2022-12-07T01:59:03;7.60;;;3.15;;
26953;SDS011;14508;50.924;11.600;2022-12-07T02:01:31;7.53;;;3.13;;
26953;SDS011;14508;50.924;11.600;2022-12-07T02:03:59;6.50;;;3.03;;
26953;SDS011;14508;50.924;11.600;2022-12-07T02:06:27;7.07;;;3.50;;
26953;SDS011;14508;50.924;11.600;2022-12-07T02:08:57;11.57;;;3.97;;
26953;SDS011;14508;50.924;11.600;2022-12-07T02:11:25;7.20;;;3.25;;
26953;SDS011;14508;50.924;11.600;2022-12-07T02:13:54;6.75;;;3.38;;
26953;SDS011;14508;50.924;11.600;2022-12-07T02:16:25;5.47;;;3.20;;
26953;SDS011;14508;50.924;11.600;2022-12-07T02:19:00;6.97;;;3.47;;
26953;SDS011;14508;50.924;11.600;2022-12-07T02:21:40;5.57;;;3.15;;
26953;SDS011;14508;50.924;11.600;2022-12-07T02:24:16;7.45;;;2.95;;
26953;SDS011;14508;50.924;11.600;2022-12-07T02:27:04;8.60;;;3.35;;
26953;SDS011;14508;50.924;11.600;2022-12-07T02:29:50;7.00;;;3.20;;
26953;SDS011;14508;50.924;11.600;2022-12-07T02:32:23;6.38;;;3.35;;
26953;SDS011;14508;50.924;11.600;2022-12-07T02:34:55;7.47;;;3.90;;
26953;SDS011;14508;50.924;11.600;2022-12-07T02:37:32;7.10;;;3.25;;
26953;SDS011;14508;50.924;11.600;2022-12-07T02:40:06;7.50;;;3.25;;
26953;SDS011;14508;50.924;11.600;2022-12-07T02:42:38;7.55;;;3.70;;
26953;SDS011;14508;50.924;11.600;2022-12-07T02:45:13;5.00;;;3.10;;
26953;SDS011;14508;50.924;11.600;2022-12-07T02:47:44;4.75;;;2.58;;
26953;SDS011;14508;50.924;11.600;2022-12-07T02:50:14;7.53;;;3.45;;
26953;SDS011;14508;50.924;11.600;2022-12-07T02:52:44;5.18;;;2.80;;
26953;SDS011;14508;50.924;11.600;2022-12-07T02:55:12;4.72;;;2.97;;
26953;SDS011;14508;50.924;11.600;2022-12-07T02:57:55;8.00;;;3.95;;
26953;SDS011;14508;50.924;11.600;2022-12-07T03:00:40;11.60;;;3.40;;
26953;SDS011;14508;50.924;11.600;2022-12-07T03:03:14;8.02;;;3.80;;
26953;SDS011;14508;50.924;11.600;2022-12-07T03:05:46;6.15;;;3.00;;
26953;SDS011;14508;50.924;11.600;2022-12-07T03:08:24;4.18;;;2.70;;
26953;SDS011;14508;50.924;11.600;2022-12-07T03:11:00;4.90;;;2.88;;
26953;SDS011;14508;50.924;11.600;2022-12-07T03:13:33;7.38;;;3.78;;
26953;SDS011;14508;50.924;11.600;2022-12-07T03:16:09;5.80;;;3.50;;
26953;SDS011;14508;50.924;11.600;2022-12-07T03:18:44;6.35;;;3.13;;
26953;SDS011;14508;50.924;11.600;2022-12-07T03:21:18;8.18;;;3.45;;
26953;SDS011;14508;50.924;11.600;2022-12-07T03:23:50;5.57;;;3.13;;
26953;SDS011;14508;50.924;11.600;2022-12-07T03:26:21;10.07;;;4.07;;
26953;SDS011;14508;50.924;11.600;2022-12-07T03:28:52;5.68;;;2.80;;
26953;SDS011;14508;50.924;11.600;2022-12-07T03:31:25;4.43;;;2.70;;
26953;SDS011;14508;50.924;11.600;2022-12-07T03:33:58;11.75;;;3.22;;
26953;SDS011;14508;50.924;11.600;2022-12-07T03:36:30;10.57;;;5.38;;
26953;SDS011;14508;50.924;11.600;2022-12-07T03:39:03;6.55;;;3.35;;
26953;SDS011;14508;50.924;11.600;2022-12-07T03:41:40;6.55;;;3.47;;
26953;SDS011;14508;50.924;11.600;2022-12-07T03:44:10;4.80;;;3.38;;
26953;SDS011;14508;50.924;11.600;2022-12-07T03:46:43;6.40;;;3.75;;
26953;SDS011;14508;50.924;11.600;2022-12-07T03:49:15;6.80;;;3.10;;
26953;SDS011;14508;50.924;11.600;2022-12-07T03:51:51;8.57;;;4.30;;
26953;SDS011;14508;50.924;11.600;2022-12-07T03:54:24;10.25;;;4.80;;
26953;SDS011;14508;50.924;11.600;2022-12-07T03:56:56;11.93;;;3.97;;
26953;SDS011;14508;50.924;11.600;2022-12-07T03:59:26;8.82;;;4.60;;
26953;SDS011;14508;50.924;11.600;2022-12-07T04:01:58;7.28;;;4.43;;
26953;SDS011;14508;50.924;11.600;2022-12-07T04:06:58;6.78;;;3.88;;
26953;SDS011;14508;50.924;11.600;2022-12-07T04:09:26;8.50;;;4.25;;
26953;SDS011;14508;50.924;11.600;2022-12-07T04:11:54;9.68;;;4.43;;
26953;SDS011;14508;50.924;11.600;2022-12-07T04:14:22;11.20;;;5.10;;
26953;SDS011;14508;50.924;11.600;2022-12-07T04:16:50;9.35;;;4.20;;
26953;SDS011;14508;50.924;11.600;2022-12-07T04:19:22;9.48;;;4.75;;
26953;SDS011;14508;50.924;11.600;2022-12-07T04:21:51;10.25;;;4.55;;
26953;SDS011;14508;50.924;11.600;2022-12-07T04:24:19;9.88;;;4.32;;
26953;SDS011;14508;50.924;11.600;2022-12-07T04:26:48;11.55;;;4.30;;
26953;SDS011;14508;50.924;11.600;2022-12-07T04:29:16;10.70;;;4.60;;
26953;SDS011;14508;50.924;11.600;2022-12-07T04:31:45;10.65;;;4.68;;
26953;SDS011;14508;50.924;11.600;2022-12-07T04:34:13;11.02;;;4.43;;
26953;SDS011;14508;50.924;11.600;2022-12-07T04:36:43;10.02;;;4.63;;
26953;SDS011;14508;50.924;11.600;2022-12-07T04:39:17;10.18;;;4.35;;
26953;SDS011;14508;50.924;11.600;2022-12-07T04:41:47;8.65;;;4.43;;
26953;SDS011;14508;50.924;11.600;2022-12-07T04:44:16;9.25;;;4.30;;
26953;SDS011;14508;50.924;11.600;2022-12-07T04:46:45;10.07;;;4.57;;
26953;SDS011;14508;50.924;11.600;2022-12-07T04:49:14;7.32;;;4.30;;
26953;SDS011;14508;50.924;11.600;2022-12-07T04:51:44;12.27;;;4.32;;
26953;SDS011;14508;50.924;11.600;2022-12-07T04:54:12;8.30;;;4.03;;
26953;SDS011;14508;50.924;11.600;2022-12-07T04:56:41;10.00;;;4.35;;
26953;SDS011;14508;50.924;11.600;2022-12-07T04:59:09;8.90;;;4.25;;
26953;SDS011;14508;50.924;11.600;2022-12-07T05:01:38;7.18;;;3.45;;
26953;SDS011;14508;50.924;11.600;2022-12-07T05:04:06;9.32;;;4.18;;
26953;SDS011;14508;50.924;11.600;2022-12-07T05:06:35;8.70;;;4.10;;
26953;SDS011;14508;50.924;11.600;2022-12-07T05:09:04;8.40;;;3.97;;
26953;SDS011;14508;50.924;11.600;2022-12-07T05:11:32;12.32;;;4.45;;
26953;SDS011;14508;50.924;11.600;2022-12-07T05:14:08;6.63;;;3.80;;
26953;SDS011;14508;50.924;11.600;2022-12-07T05:16:38;9.23;;;4.45;;
26953;SDS011;14508;50.924;11.600;2022-12-07T05:19:07;9.35;;;4.65;;
26953;SDS011;14508;50.924;11.600;2022-12-07T05:21:35;11.38;;;4.55;;
26953;SDS011;14508;50.924;11.600;2022-12-07T05:24:06;9.65;;;4.47;;
26953;SDS011;14508;50.924;11.600;2022-12-07T05:26:35;10.25;;;4.10;;
26953;SDS011;14508;50.924;11.600;2022-12-07T05:29:03;11.07;;;4.65;;
26953;SDS011;14508;50.924;11.600;2022-12-07T05:31:32;8.80;;;3.70;;
26953;SDS011;14508;50.924;11.600;2022-12-07T05:34:00;13.82;;;5.47;;
26953;SDS011;14508;50.924;11.600;2022-12-07T05:36:28;7.47;;;4.53;;
26953;SDS011;14508;50.924;11.600;2022-12-07T05:38:58;11.75;;;4.40;;
26953;SDS011;14508;50.924;11.600;2022-12-07T05:41:27;8.88;;;4.60;;
26953;SDS011;14508;50.924;11.600;2022-12-07T05:44:13;11.40;;;4.75;;
26953;SDS011;14508;50.924;11.600;2022-12-07T05:46:41;8.95;;;4.85;;
26953;SDS011;14508;50.924;11.600;2022-12-07T05:49:09;11.15;;;5.15;;
26953;SDS011;14508;50.924;11.600;2022-12-07T05:51:37;11.82;;;5.10;;
26953;SDS011;14508;50.924;11.600;2022-12-07T05:54:05;9.90;;;5.03;;
26953;SDS011;14508;50.924;11.600;2022-12-07T05:56:34;9.48;;;5.40;;
26953;SDS011;14508;50.924;11.600;2022-12-07T05:59:02;10.88;;;5.45;;
26953;SDS011;14508;50.924;11.600;2022-12-07T06:01:48;10.43;;;5.03;;
26953;SDS011;14508;50.924;11.600;2022-12-07T06:04:16;12.77;;;5.43;;
26953;SDS011;14508;50.924;11.600;2022-12-07T06:06:44;11.32;;;5.13;;
26953;SDS011;14508;50.924;11.600;2022-12-07T06:09:12;13.75;;;5.50;;
26953;SDS011;14508;50.924;11.600;2022-12-07T06:11:42;10.48;;;5.95;;
26953;SDS011;14508;50.924;11.600;2022-12-07T06:14:28;13.38;;;6.22;;
26953;SDS011;14508;50.924;11.600;2022-12-07T06:16:56;11.82;;;5.95;;
26953;SDS011;14508;50.924;11.600;2022-12-07T06:19:24;12.98;;;6.22;;
26953;SDS011;14508;50.924;11.600;2022-12-07T06:21:52;14.95;;;6.80;;
26953;SDS011;14508;50.924;11.600;2022-12-07T06:24:21;17.85;;;7.32;;
26953;SDS011;14508;50.924;11.600;2022-12-07T06:26:50;14.90;;;6.72;;
26953;SDS011;14508;50.924;11.600;2022-12-07T06:29:18;14.05;;;6.57;;
26953;SDS011;14508;50.924;11.600;2022-12-07T06:31:46;15.73;;;7.13;;
26953;SDS011;14508;50.924;11.600;2022-12-07T06:34:15;18.15;;;7.70;;
26953;SDS011;14508;50.924;11.600;2022-12-07T06:36:44;17.75;;;7.88;;
26953;SDS011;14508;50.924;11.600;2022-12-07T06:39:17;22.15;;;7.97;;
26953;SDS011;14508;50.924;11.600;2022-12-07T06:41:45;15.80;;;8.27;;
26953;SDS011;14508;50.924;11.600;2022-12-07T06:44:15;20.80;;;8.80;;
26953;SDS011;14508;50.924;11.600;2022-12-07T06:46:43;17.35;;;7.88;;
26953;SDS011;14508;50.924;11.600;2022-12-07T06:49:11;19.70;;;7.53;;
26953;SDS011;14508;50.924;11.600;2022-12-07T06:51:39;24.92;;;9.55;;
26953;SDS011;14508;50.924;11.600;2022-12-07T06:54:08;22.98;;;8.65;;
26953;SDS011;14508;50.924;11.600;2022-12-07T06:56:36;18.63;;;8.10;;
26953;SDS011;14508;50.924;11.600;2022-12-07T06:59:05;24.60;;;9.55;;
26953;SDS011;14508;50.924;11.600;2022-12-07T07:01:35;18.65;;;8.65;;
26953;SDS011;14508;50.924;11.600;2022-12-07T07:04:04;20.88;;;10.10;;
26953;SDS011;14508;50.924;11.600;2022-12-07T07:06:33;21.65;;;9.20;;
26953;SDS011;14508;50.924;11.600;2022-12-07T07:09:01;21.15;;;9.20;;
26953;SDS011;14508;50.924;11.600;2022-12-07T07:11:30;26.10;;;10.60;;
26953;SDS011;14508;50.924;11.600;2022-12-07T07:13:58;28.73;;;10.70;;
26953;SDS011;14508;50.924;11.600;2022-12-07T07:16:28;23.80;;;10.07;;
26953;SDS011;14508;50.924;11.600;2022-12-07T07:18:59;25.23;;;10.43;;
26953;SDS011;14508;50.924;11.600;2022-12-07T07:21:27;42.92;;;19.25;;
26953;SDS011;14508;50.924;11.600;2022-12-07T07:23:55;28.42;;;11.75;;
26953;SDS011;14508;50.924;11.600;2022-12-07T07:26:23;23.75;;;10.32;;
26953;SDS011;14508;50.924;11.600;2022-12-07T07:28:51;23.25;;;9.60;;
26953;SDS011;14508;50.924;11.600;2022-12-07T07:31:19;26.08;;;10.85;;
26953;SDS011;14508;50.924;11.600;2022-12-07T07:33:47;21.48;;;9.32;;
26953;SDS011;14508;50.924;11.600;2022-12-07T07:36:17;19.77;;;8.68;;
26953;SDS011;14508;50.924;11.600;2022-12-07T07:38:45;21.33;;;9.65;;
26953;SDS011;14508;50.924;11.600;2022-12-07T07:41:13;23.00;;;9.10;;
26953;SDS011;14508;50.924;11.600;2022-12-07T07:43:40;16.40;;;6.68;;
26953;SDS011;14508;50.924;11.600;2022-12-07T07:46:08;13.15;;;6.05;;
26953;SDS011;14508;50.924;11.600;2022-12-07T07:48:37;23.73;;;8.60;;
26953;SDS011;14508;50.924;11.600;2022-12-07T07:51:05;19.40;;;7.45;;
26953;SDS011;14508;50.924;11.600;2022-12-07T07:53:35;20.90;;;7.43;;
26953;SDS011;14508;50.924;11.600;2022-12-07T07:56:03;18.15;;;7.30;;
26953;SDS011;14508;50.924;11.600;2022-12-07T07:58:31;12.70;;;6.68;;
26953;SDS011;14508;50.924;11.600;2022-12-07T08:01:03;19.30;;;7.22;;
26953;SDS011;14508;50.924;11.600;2022-12-07T08:03:31;13.77;;;6.30;;
26953;SDS011;14508;50.924;11.600;2022-12-07T08:05:59;22.25;;;7.88;;
26953;SDS011;14508;50.924;11.600;2022-12-07T08:08:29;15.82;;;6.60;;
26953;SDS011;14508;50.924;11.600;2022-12-07T08:10:58;15.77;;;7.63;;
26953;SDS011;14508;50.924;11.600;2022-12-07T08:13:27;17.73;;;7.88;;
26953;SDS011;14508;50.924;11.600;2022-12-07T08:15:57;18.42;;;8.38;;
26953;SDS011;14508;50.924;11.600;2022-12-07T08:18:25;16.67;;;7.57;;
26953;SDS011;14508;50.924;11.600;2022-12-07T08:20:58;17.88;;;9.25;;
26953;SDS011;14508;50.924;11.600;2022-12-07T08:23:26;16.25;;;7.20;;
26953;SDS011;14508;50.924;11.600;2022-12-07T08:26:06;22.48;;;8.45;;
26953;SDS011;14508;50.924;11.600;2022-12-07T08:28:35;15.63;;;8.15;;
26953;SDS011;14508;50.924;11.600;2022-12-07T08:31:04;16.10;;;6.22;;
26953;SDS011;14508;50.924;11.600;2022-12-07T08:33:34;15.95;;;6.90;;
26953;SDS011;14508;50.924;11.600;2022-12-07T08:36:03;13.32;;;5.80;;
26953;SDS011;14508;50.924;11.600;2022-12-07T08:38:33;13.15;;;6.05;;
26953;SDS011;14508;50.924;11.600;2022-12-07T08:41:02;13.75;;;6.38;;
26953;SDS011;14508;50.924;11.600;2022-12-07T08:43:31;16.52;;;6.38;;
26953;SDS011;14508;50.924;11.600;2022-12-07T08:46:02;12.90;;;6.32;;
26953;SDS011;14508;50.924;11.600;2022-12-07T08:48:34;13.05;;;6.25;;
26953;SDS011;14508;50.924;11.600;2022-12-07T08:51:06;16.13;;;6.15;;
26953;SDS011;14508;50.924;11.600;2022-12-07T08:53:34;21.65;;;7.50;;
26953;SDS011;14508;50.924;11.600;2022-12-07T08:56:04;11.93;;;6.03;;
26953;SDS011;14508;50.924;11.600;2022-12-07T08:58:34;12.45;;;6.28;;
26953;SDS011;14508;50.924;11.600;2022-12-07T09:01:04;12.90;;;5.75;;
26953;SDS011;14508;50.924;11.600;2022-12-07T09:03:32;16.63;;;6.57;;
26953;SDS011;14508;50.924;11.600;2022-12-07T09:06:01;13.88;;;6.53;;
26953;SDS011;14508;50.924;11.600;2022-12-07T09:08:30;15.07;;;6.63;;
26953;SDS011;14508;50.924;11.600;2022-12-07T09:11:00;13.73;;;6.22;;
26953;SDS011;14508;50.924;11.600;2022-12-07T09:13:28;13.30;;;5.95;;
26953;SDS011;14508;50.924;11.600;2022-12-07T09:15:57;16.00;;;6.28;;
26953;SDS011;14508;50.924;11.600;2022-12-07T09:18:25;16.55;;;6.68;;
26953;SDS011;14508;50.924;11.600;2022-12-07T09:20:53;15.43;;;6.65;;
26953;SDS011;14508;50.924;11.600;2022-12-07T09:23:23;18.58;;;6.45;;
26953;SDS011;14508;50.924;11.600;2022-12-07T09:25:51;17.25;;;5.88;;
26953;SDS011;14508;50.924;11.600;2022-12-07T09:28:19;11.90;;;5.40;;
26953;SDS011;14508;50.924;11.600;2022-12-07T09:30:47;13.20;;;5.30;;
26953;SDS011;14508;50.924;11.600;2022-12-07T09:33:37;9.23;;;5.03;;
26953;SDS011;14508;50.924;11.600;2022-12-07T09:36:05;18.85;;;5.78;;
26953;SDS011;14508;50.924;11.600;2022-12-07T09:38:35;16.05;;;5.95;;
26953;SDS011;14508;50.924;11.600;2022-12-07T09:41:06;15.00;;;5.45;;
26953;SDS011;14508;50.924;11.600;2022-12-07T09:43:35;19.83;;;6.10;;
26953;SDS011;14508;50.924;11.600;2022-12-07T09:46:03;11.57;;;5.97;;
26953;SDS011;14508;50.924;11.600;2022-12-07T09:48:33;13.07;;;4.80;;
26953;SDS011;14508;50.924;11.600;2022-12-07T09:51:12;9.52;;;4.72;;
26953;SDS011;14508;50.924;11.600;2022-12-07T09:53:49;15.80;;;5.20;;
26953;SDS011;14508;50.924;11.600;2022-12-07T09:56:18;12.10;;;4.65;;
26953;SDS011;14508;50.924;11.600;2022-12-07T09:58:48;10.57;;;4.95;;
26953;SDS011;14508;50.924;11.600;2022-12-07T10:01:17;9.38;;;4.07;;
26953;SDS011;14508;50.924;11.600;2022-12-07T10:03:48;12.10;;;4.43;;
26953;SDS011;14508;50.924;11.600;2022-12-07T10:06:19;9.15;;;3.90;;
26953;SDS011;14508;50.924;11.600;2022-12-07T10:08:48;11.30;;;3.45;;
26953;SDS011;14508;50.924;11.600;2022-12-07T10:11:16;8.85;;;3.90;;
26953;SDS011;14508;50.924;11.600;2022-12-07T10:13:44;9.45;;;3.97;;
26953;SDS011;14508;50.924;11.600;2022-12-07T10:16:27;6.28;;;2.92;;
26953;SDS011;14508;50.924;11.600;2022-12-07T10:19:19;9.23;;;3.78;;
26953;SDS011;14508;50.924;11.600;2022-12-07T10:22:07;13.93;;;3.83;;
26953;SDS011;14508;50.924;11.600;2022-12-07T10:24:38;7.47;;;3.05;;
26953;SDS011;14508;50.924;11.600;2022-12-07T10:27:16;8.18;;;2.47;;
26953;SDS011;14508;50.924;11.600;2022-12-07T10:29:47;3.83;;;2.05;;
26953;SDS011;14508;50.924;11.600;2022-12-07T10:32:28;7.75;;;2.42;;
26953;SDS011;14508;50.924;11.600;2022-12-07T10:35:20;4.97;;;2.17;;
26953;SDS011;14508;50.924;11.600;2022-12-07T10:37:52;4.25;;;2.33;;
26953;SDS011;14508;50.924;11.600;2022-12-07T10:40:29;7.40;;;2.38;;
26953;SDS011;14508;50.924;11.600;2022-12-07T10:43:01;8.27;;;2.35;;
26953;SDS011;14508;50.924;11.600;2022-12-07T10:45:31;6.22;;;2.63;;
26953;SDS011;14508;50.924;11.600;2022-12-07T10:48:22;8.30;;;2.47;;
26953;SDS011;14508;50.924;11.600;2022-12-07T10:51:02;8.20;;;2.85;;
26953;SDS011;14508;50.924;11.600;2022-12-07T10:53:40;6.55;;;2.33;;
26953;SDS011;14508;50.924;11.600;2022-12-07T10:56:31;9.07;;;2.50;;
26953;SDS011;14508;50.924;11.600;2022-12-07T11:02:20;7.10;;;2.25;;
26953;SDS011;14508;50.924;11.600;2022-12-07T11:05:01;9.00;;;2.50;;
26953;SDS011;14508;50.924;11.600;2022-12-07T11:07:41;9.65;;;2.60;;
26953;SDS011;14508;50.924;11.600;2022-12-07T11:10:24;8.32;;;2.72;;
26953;SDS011;14508;50.924;11.600;2022-12-07T11:13:00;11.77;;;3.55;;
26953;SDS011;14508;50.924;11.600;2022-12-07T11:15:44;5.15;;;2.08;;
26953;SDS011;14508;50.924;11.600;2022-12-07T11:18:24;8.82;;;2.13;;
26953;SDS011;14508;50.924;11.600;2022-12-07T11:21:00;6.28;;;2.28;;
26953;SDS011;14508;50.924;11.600;2022-12-07T11:23:39;4.10;;;1.70;;
26953;SDS011;14508;50.924;11.600;2022-12-07T11:26:14;8.98;;;2.35;;
26953;SDS011;14508;50.924;11.600;2022-12-07T11:28:58;5.97;;;2.08;;
26953;SDS011;14508;50.924;11.600;2022-12-07T11:31:41;3.40;;;2.00;;
26953;SDS011;14508;50.924;11.600;2022-12-07T11:34:24;3.95;;;1.75;;
26953;SDS011;14508;50.924;11.600;2022-12-07T11:36:58;7.57;;;2.40;;
26953;SDS011;14508;50.924;11.600;2022-12-07T11:39:33;5.03;;;1.95;;
26953;SDS011;14508;50.924;11.600;2022-12-07T11:42:05;4.88;;;1.85;;
26953;SDS011;14508;50.924;11.600;2022-12-07T11:44:38;3.50;;;1.95;;
26953;SDS011;14508;50.924;11.600;2022-12-07T11:47:13;8.60;;;1.83;;
26953;SDS011;14508;50.924;11.600;2022-12-07T11:49:49;3.45;;;1.85;;
26953;SDS011;14508;50.924;11.600;2022-12-07T11:52:22;4.30;;;2.05;;
26953;SDS011;14508;50.924;11.600;2022-12-07T11:54:54;10.18;;;1.75;;
26953;SDS011;14508;50.924;11.600;2022-12-07T11:57:28;3.75;;;1.70;;
26953;SDS011;14508;50.924;11.600;2022-12-07T12:00:05;7.32;;;1.95;;
26953;SDS011;14508;50.924;11.600;2022-12-07T12:02:43;9.23;;;1.77;;
26953;SDS011;14508;50.924;11.600;2022-12-07T12:05:19;4.15;;;1.58;;
26953;SDS011;14508;50.924;11.600;2022-12-07T12:07:50;7.43;;;2.15;;
26953;SDS011;14508;50.924;11.600;2022-12-07T12:10:48;2.80;;;1.67;;
26953;SDS011;14508;50.924;11.600;2022-12-07T12:13:31;3.55;;;1.92;;
26953;SDS011;14508;50.924;11.600;2022-12-07T12:16:47;4.28;;;2.53;;
26953;SDS011;14508;50.924;11.600;2022-12-07T12:22:02;2.05;;;1.20;;
26953;SDS011;14508;50.924;11.600;2022-12-07T12:24:37;6.25;;;1.67;;
26953;SDS011;14508;50.924;11.600;2022-12-07T12:27:07;3.33;;;1.40;;
26953;SDS011;14508;50.924;11.600;2022-12-07T12:29:44;4.88;;;1.40;;
26953;SDS011;14508;50.924;11.600;2022-12-07T12:32:13;4.75;;;1.27;;
26953;SDS011;14508;50.924;11.600;2022-12-07T12:34:58;6.93;;;1.65;;
26953;SDS011;14508;50.924;11.600;2022-12-07T12:37:42;2.05;;;1.30;;
26953;SDS011;14508;50.924;11.600;2022-12-07T12:55:17;6.07;;;1.38;;
26953;SDS011;14508;50.924;11.600;2022-12-07T13:04:16;5.43;;;2.15;;
26953;SDS011;14508;50.924;11.600;2022-12-07T13:06:57;4.43;;;2.08;;
26953;SDS011;14508;50.924;11.600;2022-12-07T13:09:25;4.72;;;1.95;;
26953;SDS011;14508;50.924;11.600;2022-12-07T13:11:56;4.93;;;2.03;;
26953;SDS011;14508;50.924;11.600;2022-12-07T13:14:42;3.65;;;1.83;;
26953;SDS011;14508;50.924;11.600;2022-12-07T13:20:45;6.05;;;1.98;;
26953;SDS011;14508;50.924;11.600;2022-12-07T13:23:16;7.45;;;2.72;;
26953;SDS011;14508;50.924;11.600;2022-12-07T13:28:44;6.70;;;2.83;;
26953;SDS011;14508;50.924;11.600;2022-12-07T13:31:25;9.65;;;2.58;;
26953;SDS011;14508;50.924;11.600;2022-12-07T13:33:58;7.97;;;2.97;;
26953;SDS011;14508;50.924;11.600;2022-12-07T13:36:29;7.95;;;3.50;;
26953;SDS011;14508;50.924;11.600;2022-12-07T13:39:10;11.50;;;3.70;;
26953;SDS011;14508;50.924;11.600;2022-12-07T13:41:48;8.68;;;2.70;;
26953;SDS011;14508;50.924;11.600;2022-12-07T13:44:19;7.93;;;2.15;;
26953;SDS011;14508;50.924;11.600;2022-12-07T13:46:49;8.15;;;3.58;;
26953;SDS011;14508;50.924;11.600;2022-12-07T13:49:23;15.25;;;3.80;;
26953;SDS011;14508;50.924;11.600;2022-12-07T13:51:54;11.55;;;3.45;;
26953;SDS011;14508;50.924;11.600;2022-12-07T13:54:34;8.13;;;3.28;;
26953;SDS011;14508;50.924;11.600;2022-12-07T13:57:11;7.28;;;2.35;;
26953;SDS011;14508;50.924;11.600;2022-12-07T13:59:39;6.03;;;2.97;;
26953;SDS011;14508;50.924;11.600;2022-12-07T14:02:16;6.13;;;2.35;;
26953;SDS011;14508;50.924;11.600;2022-12-07T14:04:48;4.25;;;3.00;;
26953;SDS011;14508;50.924;11.600;2022-12-07T14:07:22;8.10;;;2.78;;
26953;SDS011;14508;50.924;11.600;2022-12-07T14:09:56;2.88;;;1.85;;
26953;SDS011;14508;50.924;11.600;2022-12-07T14:12:26;5.07;;;1.90;;
26953;SDS011;14508;50.924;11.600;2022-12-07T14:14:56;6.45;;;2.33;;
26953;SDS011;14508;50.924;11.600;2022-12-07T14:17:26;6.75;;;2.05;;
26953;SDS011;14508;50.924;11.600;2022-12-07T14:19:55;6.53;;;2.38;;
26953;SDS011;14508;50.924;11.600;2022-12-07T14:22:27;4.88;;;1.50;;
26953;SDS011;14508;50.924;11.600;2022-12-07T14:27:49;4.05;;;1.38;;
26953;SDS011;14508;50.924;11.600;2022-12-07T14:30:22;7.68;;;2.17;;
26953;SDS011;14508;50.924;11.600;2022-12-07T14:32:52;3.28;;;1.63;;
26953;SDS011;14508;50.924;11.600;2022-12-07T14:35:22;4.55;;;1.83;;
26953;SDS011;14508;50.924;11.600;2022-12-07T14:37:51;5.95;;;2.45;;
26953;SDS011;14508;50.924;11.600;2022-12-07T14:40:20;4.75;;;1.98;;
26953;SDS011;14508;50.924;11.600;2022-12-07T14:42:50;15.60;;;2.45;;
26953;SDS011;14508;50.924;11.600;2022-12-07T14:45:22;12.73;;;5.05;;
26953;SDS011;14508;50.924;11.600;2022-12-07T14:47:50;13.98;;;11.00;;
26953;SDS011;14508;50.924;11.600;2022-12-07T14:50:40;8.95;;;4.18;;
26953;SDS011;14508;50.924;11.600;2022-12-07T14:53:33;5.18;;;2.08;;
26953;SDS011;14508;50.924;11.600;2022-12-07T14:56:04;4.72;;;2.22;;
26953;SDS011;14508;50.924;11.600;2022-12-07T14:58:32;7.30;;;3.17;;
26953;SDS011;14508;50.924;11.600;2022-12-07T15:01:01;39.00;;;16.35;;
26953;SDS011;14508;50.924;11.600;2022-12-07T15:03:29;87.82;;;40.15;;
26953;SDS011;14508;50.924;11.600;2022-12-07T15:05:57;26.90;;;13.98;;
26953;SDS011;14508;50.924;11.600;2022-12-07T15:08:25;8.77;;;2.70;;
26953;SDS011;14508;50.924;11.600;2022-12-07T15:10:54;9.00;;;2.63;;
26953;SDS011;14508;50.924;11.600;2022-12-07T15:13:22;6.03;;;3.25;;
26953;SDS011;14508;50.924;11.600;2022-12-07T15:16:08;11.82;;;3.45;;
26953;SDS011;14508;50.924;11.600;2022-12-07T15:18:38;10.02;;;5.00;;
26953;SDS011;14508;50.924;11.600;2022-12-07T15:21:23;12.68;;;5.43;;
26953;SDS011;14508;50.924;11.600;2022-12-07T15:23:51;9.15;;;4.25;;
26953;SDS011;14508;50.924;11.600;2022-12-07T15:26:21;8.73;;;3.92;;
26953;SDS011;14508;50.924;11.600;2022-12-07T15:28:49;9.00;;;4.75;;
26953;SDS011;14508;50.924;11.600;2022-12-07T15:31:19;11.43;;;4.28;;
26953;SDS011;14508;50.924;11.600;2022-12-07T15:34:07;10.05;;;4.22;;
26953;SDS011;14508;50.924;11.600;2022-12-07T15:36:35;11.10;;;4.65;;
26953;SDS011;14508;50.924;11.600;2022-12-07T15:39:03;10.90;;;3.70;;